Agia Anna — SW8197 — position and weather

sailwx.info

Track history (hours):
 
Tides and Currents Weather Stations Pressure Air Temp Water Temp Dewpoint Dewpoint Depression Visibility Wind Speed Wind Dir Waves Ship Positions

Agia Anna

Last reported at 2017-Nov-19 14:03 UTC. Time now 2017-Nov-20 02:23 UTC.
Position N 40°17' E 024°03'.

Length 32 m; draft 2 m.

Type: Passenger vessel. MMSI: 237010400.

Date/timePositionNaut miles runAvg speedWind from/ knotsBaromVisibWave heightAir tempDewpointWater temp
2017-Nov-19 14:03N 40°17' E 024°03'1 9.1
2017-Nov-19 13:55N 40°17' E 024°05'5 6.9
2017-Nov-19 13:14N 40°15' E 024°11'5 6.2
2017-Nov-19 12:26N 40°11' E 024°14'2 4.9
2017-Nov-19 12:00N 40°10' E 024°16'2 3.9
2017-Nov-19 11:30N 40°08' E 024°17'2 3.6
2017-Nov-19 11:00N 40°10' E 024°17'4 5.7
2017-Nov-19 10:23N 40°12' E 024°13'2 5.2
2017-Nov-19 09:59N 40°14' E 024°12'4 0.2
2017-Nov-18 12:19N 40°11' E 024°15'2 1.7
2017-Nov-18 11:10N 40°10' E 024°17'2 0.7
2017-Nov-18 08:18N 40°08' E 024°17'2 4.4
2017-Nov-18 07:56N 40°09' E 024°17'3 5.1
2017-Nov-18 07:27N 40°11' E 024°15'3 6.0
2017-Nov-18 06:55N 40°14' E 024°12'3 6.4
2017-Nov-18 06:24N 40°16' E 024°10'3 6.8
2017-Nov-18 05:54N 40°17' E 024°05'4 0.3
2017-Nov-17 15:17N 40°19' E 024°00'4 9.0
2017-Nov-17 14:52N 40°17' E 024°05'3 9.2
2017-Nov-17 14:30N 40°17' E 024°09'10 3.1
2017-Nov-17 11:27N 40°10' E 024°17'3 1.2
2017-Nov-17 09:06N 40°11' E 024°14'4 4.1
2017-Nov-17 08:05N 40°08' E 024°17'1 2.2
2017-Nov-17 07:50N 40°08' E 024°17'2 4.1
2017-Nov-17 07:22N 40°09' E 024°17'2 5.1
2017-Nov-17 06:56N 40°11' E 024°15'4 5.5
2017-Nov-17 06:14N 40°14' E 024°12'1 6.2
2017-Nov-17 06:00N 40°15' E 024°11'6 0.4
2017-Nov-16 15:08N 40°17' E 024°03'2 6.3
2017-Nov-16 14:51N 40°17' E 024°05'2 7.2
2017-Nov-16 14:30N 40°17' E 024°08'2 4.8
2017-Nov-16 14:00N 40°15' E 024°10'8 3.0
2017-Nov-16 11:29N 40°09' E 024°17'3 1.3
2017-Nov-16 09:19N 40°11' E 024°14'3 1.2
2017-Nov-16 06:25N 40°14' E 024°12'4 7.5
2017-Nov-16 05:54N 40°17' E 024°09'3 7.1
2017-Nov-16 05:26N 40°18' E 024°04'3 6.8
2017-Nov-16 04:56N 40°19' E 024°00'5 0.3
2017-Nov-15 14:36N 40°17' E 024°06'3 7.4
2017-Nov-15 14:10N 40°16' E 024°10'5 4.4
2017-Nov-15 12:58N 40°11' E 024°14'4 5.4
2017-Nov-15 12:09N 40°08' E 024°17'1 2.1
2017-Nov-15 11:51N 40°08' E 024°17'2 4.5
2017-Nov-15 11:29N 40°10' E 024°16'3 4.9
2017-Nov-15 10:57N 40°11' E 024°14'3 2.8
2017-Nov-15 09:53N 40°14' E 024°12'4 8.6
2017-Nov-15 09:27N 40°17' E 024°09'7 6.7
2017-Nov-15 08:25N 40°19' E 024°00'0 0.2
2017-Nov-15 07:50N 40°19' E 023°60'3 9.3
2017-Nov-15 07:30N 40°17' E 024°04'5 9.2
2017-Nov-15 07:00N 40°16' E 024°09'3 3.3
2017-Nov-15 06:13N 40°14' E 024°12'2 8.5
2017-Nov-15 06:00N 40°15' E 024°11'9 0.6
2017-Nov-14 14:59N 40°19' E 023°60'5 9.4
2017-Nov-14 14:29N 40°16' E 024°05'5 9.6
2017-Nov-14 13:59N 40°14' E 024°11'3 5.1
2017-Nov-14 13:30N 40°12' E 024°13'3 7.1
2017-Nov-14 13:00N 40°10' E 024°16'2 2.3
2017-Nov-14 11:59N 40°08' E 024°17'2 4.3
2017-Nov-14 11:30N 40°10' E 024°17'4 6.0
2017-Nov-14 10:53N 40°12' E 024°13'1 0.7
2017-Nov-14 09:20N 40°11' E 024°14'2 4.9
2017-Nov-14 08:58N 40°10' E 024°16'3 2.0
2017-Nov-14 07:33N 40°08' E 024°17'2 4.4
2017-Nov-14 07:04N 40°10' E 024°17'1 8.6
2017-Nov-14 07:00N 40°10' E 024°16'3 6.0
2017-Nov-14 06:28N 40°12' E 024°13'3 5.1
2017-Nov-14 05:58N 40°14' E 024°11'3 7.3
2017-Nov-14 05:30N 40°17' E 024°08'2 0.1
2017-Nov-12 13:53N 40°16' E 024°05'4 9.4
2017-Nov-12 13:30N 40°15' E 024°09'5 4.8
2017-Nov-12 12:28N 40°11' E 024°14'3 5.5
2017-Nov-12 11:57N 40°09' E 024°17'0 0.4
2017-Nov-12 11:05N 40°09' E 024°17'1 4.7
2017-Nov-12 10:56N 40°10' E 024°16'3 5.7
2017-Nov-12 10:26N 40°12' E 024°13'2 5.1
2017-Nov-12 09:57N 40°14' E 024°12'4 8.8
2017-Nov-12 09:30N 40°16' E 024°07'9 0.4
2017-Nov-11 12:15N 40°10' E 024°16'2 5.6
2017-Nov-11 11:48N 40°08' E 024°17'2 3.7
2017-Nov-11 11:20N 40°09' E 024°17'1 4.0
2017-Nov-11 11:00N 40°10' E 024°16'3 2.0
2017-Nov-11 09:40N 40°12' E 024°13'1 8.7
2017-Nov-11 09:30N 40°11' E 024°15'1 2.2
2017-Nov-11 08:54N 40°10' E 024°16'3 4.9
2017-Nov-11 08:20N 40°08' E 024°17'1 2.1
2017-Nov-11 07:57N 40°08' E 024°17'2 4.0
2017-Nov-11 07:27N 40°10' E 024°16'3 6.4
2017-Nov-11 06:59N 40°12' E 024°13'2 4.7
2017-Nov-11 06:30N 40°14' E 024°12'4 0.3
2017-Nov-10 14:43N 40°16' E 024°07'2 9.1
2017-Nov-10 14:28N 40°15' E 024°10'6 4.9
2017-Nov-10 13:20N 40°11' E 024°15'2 4.5
2017-Nov-10 13:00N 40°10' E 024°16'2 2.1
2017-Nov-10 11:56N 40°08' E 024°17'2 3.9
2017-Nov-10 11:28N 40°09' E 024°17'3 5.6
2017-Nov-10 10:56N 40°11' E 024°14'0 0.3
2017-Nov-10 09:44N 40°11' E 024°14'1 4.6
2017-Nov-10 09:26N 40°10' E 024°16'2 4.6
2017-Nov-10 08:57N 40°08' E 024°17'1 0.8
2017-Nov-10 07:54N 40°08' E 024°17'2 4.3
2017-Nov-10 07:30N 40°09' E 024°17'3 4.5
2017-Nov-10 06:55N 40°11' E 024°14'3 5.6
2017-Nov-10 06:19N 40°14' E 024°12'4 0.3
2017-Nov-09 14:25N 40°15' E 024°07'  
Track history (hours):
 
Tides and Currents Weather Stations Pressure Air Temp Water Temp Dewpoint Dewpoint Depression Visibility Wind Speed Wind Dir Waves Ship Positions

Agia Anna

Last reported at 2017-Nov-19 14:03 UTC. Time now 2017-Nov-20 02:23 UTC.
Position N 40°17' E 024°03'.

Length 32 m; draft 2 m.

Type: Passenger vessel. MMSI: 237010400.

Date/timePositionNaut miles runAvg speedWind from/ knotsBaromVisibWave heightAir tempDewpointWater temp
2017-Nov-19 14:03N 40°17' E 024°03'1 9.1
2017-Nov-19 13:55N 40°17' E 024°05'5 6.9
2017-Nov-19 13:14N 40°15' E 024°11'5 6.2
2017-Nov-19 12:26N 40°11' E 024°14'2 4.9
2017-Nov-19 12:00N 40°10' E 024°16'2 3.9
2017-Nov-19 11:30N 40°08' E 024°17'2 3.6
2017-Nov-19 11:00N 40°10' E 024°17'4 5.7
2017-Nov-19 10:23N 40°12' E 024°13'2 5.2
2017-Nov-19 09:59N 40°14' E 024°12'4 0.2
2017-Nov-18 12:19N 40°11' E 024°15'2 1.7
2017-Nov-18 11:10N 40°10' E 024°17'2 0.7
2017-Nov-18 08:18N 40°08' E 024°17'2 4.4
2017-Nov-18 07:56N 40°09' E 024°17'3 5.1
2017-Nov-18 07:27N 40°11' E 024°15'3 6.0
2017-Nov-18 06:55N 40°14' E 024°12'3 6.4
2017-Nov-18 06:24N 40°16' E 024°10'3 6.8
2017-Nov-18 05:54N 40°17' E 024°05'4 0.3
2017-Nov-17 15:17N 40°19' E 024°00'4 9.0
2017-Nov-17 14:52N 40°17' E 024°05'3 9.2
2017-Nov-17 14:30N 40°17' E 024°09'10 3.1
2017-Nov-17 11:27N 40°10' E 024°17'3 1.2
2017-Nov-17 09:06N 40°11' E 024°14'4 4.1
2017-Nov-17 08:05N 40°08' E 024°17'1 2.2
2017-Nov-17 07:50N 40°08' E 024°17'2 4.1
2017-Nov-17 07:22N 40°09' E 024°17'2 5.1
2017-Nov-17 06:56N 40°11' E 024°15'4 5.5
2017-Nov-17 06:14N 40°14' E 024°12'1 6.2
2017-Nov-17 06:00N 40°15' E 024°11'6 0.4
2017-Nov-16 15:08N 40°17' E 024°03'2 6.3
2017-Nov-16 14:51N 40°17' E 024°05'2 7.2
2017-Nov-16 14:30N 40°17' E 024°08'2 4.8
2017-Nov-16 14:00N 40°15' E 024°10'8 3.0
2017-Nov-16 11:29N 40°09' E 024°17'3 1.3
2017-Nov-16 09:19N 40°11' E 024°14'3 1.2
2017-Nov-16 06:25N 40°14' E 024°12'4 7.5
2017-Nov-16 05:54N 40°17' E 024°09'3 7.1
2017-Nov-16 05:26N 40°18' E 024°04'3 6.8
2017-Nov-16 04:56N 40°19' E 024°00'5 0.3
2017-Nov-15 14:36N 40°17' E 024°06'3 7.4
2017-Nov-15 14:10N 40°16' E 024°10'5 4.4
2017-Nov-15 12:58N 40°11' E 024°14'4 5.4
2017-Nov-15 12:09N 40°08' E 024°17'1 2.1
2017-Nov-15 11:51N 40°08' E 024°17'2 4.5
2017-Nov-15 11:29N 40°10' E 024°16'3 4.9
2017-Nov-15 10:57N 40°11' E 024°14'3 2.8
2017-Nov-15 09:53N 40°14' E 024°12'4 8.6
2017-Nov-15 09:27N 40°17' E 024°09'7 6.7
2017-Nov-15 08:25N 40°19' E 024°00'0 0.2
2017-Nov-15 07:50N 40°19' E 023°60'3 9.3
2017-Nov-15 07:30N 40°17' E 024°04'5 9.2
2017-Nov-15 07:00N 40°16' E 024°09'3 3.3
2017-Nov-15 06:13N 40°14' E 024°12'2 8.5
2017-Nov-15 06:00N 40°15' E 024°11'9 0.6
2017-Nov-14 14:59N 40°19' E 023°60'5 9.4
2017-Nov-14 14:29N 40°16' E 024°05'5 9.6
2017-Nov-14 13:59N 40°14' E 024°11'3 5.1
2017-Nov-14 13:30N 40°12' E 024°13'3 7.1
2017-Nov-14 13:00N 40°10' E 024°16'2 2.3
2017-Nov-14 11:59N 40°08' E 024°17'2 4.3
2017-Nov-14 11:30N 40°10' E 024°17'4 6.0
2017-Nov-14 10:53N 40°12' E 024°13'1 0.7
2017-Nov-14 09:20N 40°11' E 024°14'2 4.9
2017-Nov-14 08:58N 40°10' E 024°16'3 2.0
2017-Nov-14 07:33N 40°08' E 024°17'2 4.4
2017-Nov-14 07:04N 40°10' E 024°17'1 8.6
2017-Nov-14 07:00N 40°10' E 024°16'3 6.0
2017-Nov-14 06:28N 40°12' E 024°13'3 5.1
2017-Nov-14 05:58N 40°14' E 024°11'3 7.3
2017-Nov-14 05:30N 40°17' E 024°08'2 0.1
2017-Nov-12 13:53N 40°16' E 024°05'4 9.4
2017-Nov-12 13:30N 40°15' E 024°09'5 4.8
2017-Nov-12 12:28N 40°11' E 024°14'3 5.5
2017-Nov-12 11:57N 40°09' E 024°17'0 0.4
2017-Nov-12 11:05N 40°09' E 024°17'1 4.7
2017-Nov-12 10:56N 40°10' E 024°16'3 5.7
2017-Nov-12 10:26N 40°12' E 024°13'2 5.1
2017-Nov-12 09:57N 40°14' E 024°12'4 8.8
2017-Nov-12 09:30N 40°16' E 024°07'9 0.4
2017-Nov-11 12:15N 40°10' E 024°16'2 5.6
2017-Nov-11 11:48N 40°08' E 024°17'2 3.7
2017-Nov-11 11:20N 40°09' E 024°17'1 4.0
2017-Nov-11 11:00N 40°10' E 024°16'3 2.0
2017-Nov-11 09:40N 40°12' E 024°13'1 8.7
2017-Nov-11 09:30N 40°11' E 024°15'1 2.2
2017-Nov-11 08:54N 40°10' E 024°16'3 4.9
2017-Nov-11 08:20N 40°08' E 024°17'1 2.1
2017-Nov-11 07:57N 40°08' E 024°17'2 4.0
2017-Nov-11 07:27N 40°10' E 024°16'3 6.4
2017-Nov-11 06:59N 40°12' E 024°13'2 4.7
2017-Nov-11 06:30N 40°14' E 024°12'4 0.3
2017-Nov-10 14:43N 40°16' E 024°07'2 9.1
2017-Nov-10 14:28N 40°15' E 024°10'6 4.9
2017-Nov-10 13:20N 40°11' E 024°15'2 4.5
2017-Nov-10 13:00N 40°10' E 024°16'2 2.1
2017-Nov-10 11:56N 40°08' E 024°17'2 3.9
2017-Nov-10 11:28N 40°09' E 024°17'3 5.6
2017-Nov-10 10:56N 40°11' E 024°14'0 0.3
2017-Nov-10 09:44N 40°11' E 024°14'1 4.6
2017-Nov-10 09:26N 40°10' E 024°16'2 4.6
2017-Nov-10 08:57N 40°08' E 024°17'1 0.8
2017-Nov-10 07:54N 40°08' E 024°17'2 4.3
2017-Nov-10 07:30N 40°09' E 024°17'3 4.5
2017-Nov-10 06:55N 40°11' E 024°14'3 5.6
2017-Nov-10 06:19N 40°14' E 024°12'4 0.3
2017-Nov-09 14:25N 40°15' E 024°07'  

Dump ship's entire track history